createdAt,value
2022-11-12T00:00:49.673Z,12.00
2022-11-12T00:03:16.185Z,11.77
2022-11-12T00:05:45.018Z,11.70
2022-11-12T00:08:11.540Z,11.67
2022-11-12T00:10:38.066Z,11.86
2022-11-12T00:13:04.665Z,11.71
2022-11-12T00:15:31.135Z,12.01
2022-11-12T00:17:57.916Z,11.85
2022-11-12T00:20:24.608Z,11.94
2022-11-12T00:23:11.095Z,11.94
2022-11-12T00:25:37.732Z,11.90
2022-11-12T00:28:06.735Z,11.88
2022-11-12T00:30:33.590Z,11.61
2022-11-12T00:33:04.366Z,11.56
2022-11-12T00:35:32.462Z,11.42
2022-11-12T00:37:59.277Z,11.43
2022-11-12T00:40:26.752Z,11.53
2022-11-12T00:42:53.613Z,11.37
2022-11-12T00:45:20.570Z,10.98
2022-11-12T00:47:47.268Z,11.19
2022-11-12T00:50:15.870Z,10.98
2022-11-12T00:52:42.790Z,10.99
2022-11-12T00:55:09.262Z,10.91
2022-11-12T00:57:35.793Z,10.96
2022-11-12T01:00:03.663Z,10.78
2022-11-12T01:02:30.261Z,10.84
2022-11-12T01:04:56.822Z,10.84
2022-11-12T01:07:23.298Z,10.85
2022-11-12T01:09:49.708Z,10.77
2022-11-12T01:12:16.393Z,10.79
2022-11-12T01:14:42.850Z,10.78
2022-11-12T01:17:09.357Z,10.67
2022-11-12T01:19:36.184Z,10.61
2022-11-12T01:22:02.665Z,10.86
2022-11-12T01:24:29.134Z,10.85
2022-11-12T01:26:55.806Z,10.86
2022-11-12T01:29:22.360Z,10.89
2022-11-12T01:31:48.805Z,10.88
2022-11-12T01:34:15.238Z,10.63
2022-11-12T01:36:43.489Z,10.72
2022-11-12T01:39:10.015Z,10.66
2022-11-12T01:41:38.606Z,10.39
2022-11-12T01:44:19.609Z,10.24
2022-11-12T01:46:55.280Z,10.63
2022-11-12T01:49:50.460Z,10.50
2022-11-12T01:52:31.074Z,10.67
2022-11-12T01:55:05.249Z,10.78
2022-11-12T01:57:36.074Z,10.72
2022-11-12T02:00:08.325Z,10.99
2022-11-12T02:02:36.657Z,10.54
2022-11-12T02:05:06.182Z,10.77
2022-11-12T02:07:33.202Z,10.63
2022-11-12T02:10:01.445Z,10.71
2022-11-12T02:12:46.703Z,10.58
2022-11-12T02:15:13.280Z,10.91
2022-11-12T02:17:39.800Z,10.78
2022-11-12T02:20:10.059Z,10.74
2022-11-12T02:22:36.552Z,10.59
2022-11-12T02:25:03.837Z,10.60
2022-11-12T02:27:30.528Z,10.60
2022-11-12T02:29:57.117Z,9.90
2022-11-12T02:32:23.990Z,9.95
2022-11-12T02:34:50.462Z,10.39
2022-11-12T02:37:16.920Z,10.48
2022-11-12T02:39:43.379Z,10.59
2022-11-12T02:42:09.818Z,10.39
2022-11-12T02:44:36.459Z,10.26
2022-11-12T02:47:02.916Z,10.16
2022-11-12T02:49:29.409Z,10.05
2022-11-12T02:51:56.735Z,10.54
2022-11-12T02:54:23.253Z,10.63
2022-11-12T02:56:49.710Z,10.72
2022-11-12T02:59:16.180Z,10.61
2022-11-12T03:01:42.766Z,10.45
2022-11-12T03:04:09.300Z,10.79
2022-11-12T03:06:35.864Z,10.77
2022-11-12T03:09:02.346Z,10.74
2022-11-12T03:11:29.048Z,10.75
2022-11-12T03:13:55.609Z,10.77
2022-11-12T03:16:22.083Z,10.69
2022-11-12T03:18:48.573Z,10.81
2022-11-12T03:21:15.073Z,10.89
2022-11-12T03:23:41.602Z,10.98
2022-11-12T03:26:08.055Z,11.10
2022-11-12T03:28:34.493Z,11.07
2022-11-12T03:31:01.636Z,11.04
2022-11-12T03:33:28.250Z,11.12
2022-11-12T03:35:54.743Z,10.85
2022-11-12T03:38:21.206Z,10.93
2022-11-12T03:40:48.955Z,11.02
2022-11-12T03:43:15.545Z,10.97
2022-11-12T03:45:41.965Z,10.80
2022-11-12T03:48:08.421Z,11.05
2022-11-12T03:50:35.146Z,10.96
2022-11-12T03:53:01.724Z,11.11
2022-11-12T03:55:29.407Z,11.00
2022-11-12T03:57:56.779Z,10.85
2022-11-12T04:00:24.947Z,10.69
2022-11-12T04:02:51.808Z,10.90
2022-11-12T04:05:37.419Z,10.98
2022-11-12T04:08:25.769Z,11.02
2022-11-12T04:10:54.701Z,10.95
2022-11-12T04:13:30.427Z,11.10
2022-11-12T04:16:26.191Z,11.05
2022-11-12T04:19:14.170Z,11.08
2022-11-12T04:21:52.345Z,10.72
2022-11-12T04:24:39.000Z,11.11
2022-11-12T04:27:06.723Z,10.90
2022-11-12T04:29:52.074Z,10.83
2022-11-12T04:32:19.208Z,10.93
2022-11-12T04:34:45.763Z,10.90
2022-11-12T04:37:12.297Z,11.11
2022-11-12T04:39:38.736Z,11.04
2022-11-12T04:42:23.836Z,11.14
2022-11-12T04:45:03.841Z,11.12
2022-11-12T04:47:35.851Z,10.97
2022-11-12T04:50:04.663Z,10.83
2022-11-12T04:52:31.735Z,10.92
2022-11-12T04:54:59.053Z,10.86
2022-11-12T04:57:26.274Z,10.89
2022-11-12T04:59:52.774Z,11.09
2022-11-12T05:02:19.992Z,11.15
2022-11-12T05:04:46.556Z,10.91
2022-11-12T05:07:13.272Z,11.07
2022-11-12T05:09:40.241Z,10.75
2022-11-12T05:12:07.136Z,11.06
2022-11-12T05:14:33.593Z,11.09
2022-11-12T05:17:00.395Z,11.12
2022-11-12T05:19:26.851Z,11.05
2022-11-12T05:22:05.392Z,10.73
2022-11-12T05:24:42.608Z,10.94
2022-11-12T05:27:15.324Z,10.98
2022-11-12T05:29:42.375Z,10.79
2022-11-12T05:32:11.784Z,10.82
2022-11-12T05:34:38.271Z,10.69
2022-11-12T05:37:06.141Z,10.71
2022-11-12T05:39:32.695Z,10.62
2022-11-12T05:42:12.312Z,10.73
2022-11-12T05:44:39.898Z,10.79
2022-11-12T05:47:06.341Z,10.46
2022-11-12T05:49:32.981Z,10.25
2022-11-12T05:51:59.463Z,10.56
2022-11-12T05:54:26.009Z,10.55
2022-11-12T05:56:55.915Z,10.58
2022-11-12T05:59:22.470Z,10.35
2022-11-12T06:01:49.081Z,10.26
2022-11-12T06:04:24.664Z,10.66
2022-11-12T06:06:51.194Z,10.48
2022-11-12T06:09:17.674Z,10.57
2022-11-12T06:11:44.238Z,10.41
2022-11-12T06:14:10.806Z,10.36
2022-11-12T06:16:37.247Z,10.39
2022-11-12T06:19:04.851Z,10.43
2022-11-12T06:21:31.372Z,10.28
2022-11-12T06:23:59.575Z,10.35
2022-11-12T06:26:29.157Z,10.07
2022-11-12T06:28:55.934Z,10.22
2022-11-12T06:31:22.504Z,10.29
2022-11-12T06:33:49.335Z,10.20
2022-11-12T06:36:18.041Z,10.27
2022-11-12T06:38:45.306Z,10.06
2022-11-12T06:41:12.822Z,10.15
2022-11-12T06:43:39.739Z,10.10
2022-11-12T06:46:09.573Z,10.23
2022-11-12T06:48:36.043Z,10.21
2022-11-12T06:51:07.899Z,10.11
2022-11-12T06:53:34.387Z,9.94
2022-11-12T06:56:02.536Z,9.77
2022-11-12T06:58:29.281Z,9.85
2022-11-12T07:00:55.841Z,9.82
2022-11-12T07:03:22.540Z,10.11
2022-11-12T07:05:49.079Z,9.82
2022-11-12T07:08:15.555Z,10.22
2022-11-12T07:10:42.212Z,10.14
2022-11-12T07:13:08.994Z,10.03
2022-11-12T07:15:35.450Z,10.42
2022-11-12T07:18:02.953Z,10.39
2022-11-12T07:20:29.523Z,10.63
2022-11-12T07:23:00.449Z,10.65
2022-11-12T07:25:27.002Z,10.66
2022-11-12T07:27:53.519Z,10.42
2022-11-12T07:30:19.986Z,10.50
2022-11-12T07:32:50.934Z,10.74
2022-11-12T07:35:18.625Z,10.44
2022-11-12T07:37:45.050Z,10.75
2022-11-12T07:40:11.873Z,10.80
2022-11-12T07:42:38.955Z,10.59
2022-11-12T07:45:06.034Z,10.97
2022-11-12T07:47:32.651Z,10.81
2022-11-12T07:50:00.358Z,11.10
2022-11-12T07:52:26.941Z,11.17
2022-11-12T07:54:53.578Z,11.21
2022-11-12T07:57:20.116Z,11.40
2022-11-12T07:59:46.702Z,11.61
2022-11-12T08:02:13.334Z,11.77
2022-11-12T08:04:39.926Z,12.02
2022-11-12T08:07:06.753Z,12.20
2022-11-12T08:09:33.394Z,12.11
2022-11-12T08:11:59.958Z,12.29
2022-11-12T08:14:26.497Z,12.36
2022-11-12T08:16:53.037Z,12.01
2022-11-12T08:19:19.632Z,12.34
2022-11-12T08:21:46.126Z,12.31
2022-11-12T08:24:12.570Z,12.52
2022-11-12T08:26:39.049Z,13.03
2022-11-12T08:29:08.687Z,13.82
2022-11-12T08:31:35.840Z,14.52
2022-11-12T08:34:12.113Z,15.09
2022-11-12T08:36:39.434Z,15.52
2022-11-12T08:39:07.233Z,15.86
2022-11-12T08:41:34.118Z,16.51
2022-11-12T08:44:05.536Z,16.85
2022-11-12T08:46:34.741Z,17.37
2022-11-12T08:49:01.278Z,17.95
2022-11-12T08:51:27.711Z,18.23
2022-11-12T08:53:54.281Z,18.77
2022-11-12T08:56:20.840Z,18.87
2022-11-12T08:58:47.296Z,19.32
2022-11-12T09:01:13.798Z,19.61
2022-11-12T09:03:40.339Z,19.97
2022-11-12T09:06:07.825Z,20.38
2022-11-12T09:08:35.928Z,20.96
2022-11-12T09:11:02.822Z,21.23
2022-11-12T09:13:29.339Z,21.74
2022-11-12T09:16:00.410Z,23.49
2022-11-12T09:18:27.302Z,25.83
2022-11-12T09:20:53.995Z,27.62
2022-11-12T09:23:20.456Z,29.28
2022-11-12T09:25:46.957Z,31.67
2022-11-12T09:28:16.327Z,34.21
2022-11-12T09:30:47.859Z,36.65
2022-11-12T09:33:15.550Z,38.17
2022-11-12T09:35:42.706Z,37.92
2022-11-12T09:38:09.259Z,37.03
2022-11-12T09:40:52.766Z,36.41
2022-11-12T09:43:37.266Z,35.77
2022-11-12T09:46:27.170Z,34.64
2022-11-12T09:49:36.845Z,34.43
2022-11-12T09:52:06.705Z,34.30
2022-11-12T09:54:35.075Z,34.22
2022-11-12T09:57:02.329Z,34.69
2022-11-12T09:59:30.680Z,36.31
2022-11-12T10:02:00.212Z,38.98
2022-11-12T10:05:04.234Z,41.22
2022-11-12T10:07:33.655Z,41.49
2022-11-12T10:10:04.348Z,41.17
2022-11-12T10:12:41.932Z,41.30
2022-11-12T10:16:08.608Z,42.40
2022-11-12T10:18:35.111Z,43.42
2022-11-12T10:21:29.320Z,44.85
2022-11-12T10:23:56.870Z,45.88
2022-11-12T10:26:25.096Z,46.53
2022-11-12T10:28:51.936Z,46.95
2022-11-12T10:31:20.891Z,47.39
2022-11-12T10:33:48.110Z,47.67
2022-11-12T10:36:33.637Z,47.64
2022-11-12T10:39:00.234Z,47.86
2022-11-12T10:41:30.842Z,47.77
2022-11-12T10:43:57.360Z,48.01
2022-11-12T10:46:30.075Z,48.48
2022-11-12T10:48:59.934Z,48.42
2022-11-12T10:51:31.956Z,48.09
2022-11-12T10:53:58.764Z,48.00
2022-11-12T10:56:31.949Z,47.84
2022-11-12T10:59:18.487Z,47.50
2022-11-12T11:01:46.364Z,47.48
2022-11-12T11:04:36.985Z,47.25
2022-11-12T11:07:24.588Z,47.60
2022-11-12T11:09:56.181Z,47.47
2022-11-12T11:12:26.007Z,47.31
2022-11-12T11:15:19.210Z,47.46
2022-11-12T11:17:46.025Z,47.22
2022-11-12T11:20:29.285Z,47.35
2022-11-12T11:23:11.061Z,47.61
2022-11-12T11:25:38.469Z,47.33
2022-11-12T11:28:15.241Z,48.07
2022-11-12T11:30:59.856Z,49.04
2022-11-12T11:34:02.042Z,49.63
2022-11-12T11:36:32.841Z,50.02
2022-11-12T11:39:36.874Z,50.66
2022-11-12T11:42:32.773Z,50.55
2022-11-12T11:45:26.241Z,49.72
2022-11-12T11:48:04.324Z,49.54
2022-11-12T11:50:35.668Z,50.08
2022-11-12T11:53:20.996Z,50.73
2022-11-12T11:56:01.293Z,50.99
2022-11-12T11:58:53.337Z,51.64
2022-11-12T12:02:02.314Z,51.68
2022-11-12T12:04:51.825Z,51.56
2022-11-12T12:07:26.041Z,49.99
2022-11-12T12:10:17.435Z,47.52
2022-11-12T12:12:56.122Z,47.64
2022-11-12T12:15:22.583Z,45.51
2022-11-12T12:18:06.533Z,39.38
2022-11-12T12:20:42.839Z,36.00
2022-11-12T12:23:15.449Z,31.99
2022-11-12T12:25:42.741Z,30.11
2022-11-12T12:28:40.369Z,28.82
2022-11-12T12:31:14.898Z,28.00
2022-11-12T12:33:51.292Z,27.11
2022-11-12T12:36:21.092Z,26.12
2022-11-12T12:39:12.171Z,25.02
2022-11-12T12:42:23.375Z,24.74
2022-11-12T12:45:00.280Z,23.72
2022-11-12T12:47:41.597Z,23.72
2022-11-12T12:50:13.283Z,22.42
2022-11-12T12:53:15.841Z,22.43
2022-11-12T12:55:50.293Z,22.23
2022-11-12T12:58:32.033Z,22.75
2022-11-12T13:01:09.267Z,22.64
2022-11-12T13:03:45.018Z,22.43
2022-11-12T13:06:25.200Z,22.62
2022-11-12T13:09:00.578Z,22.54
2022-11-12T13:12:01.115Z,22.62
2022-11-12T13:14:36.775Z,22.53
2022-11-12T13:17:09.211Z,22.44
2022-11-12T13:19:59.021Z,22.36
2022-11-12T13:22:25.507Z,22.31
2022-11-12T13:25:01.028Z,22.22
2022-11-12T13:27:43.317Z,22.11
2022-11-12T13:30:41.744Z,22.11
2022-11-12T13:33:21.646Z,22.24
2022-11-12T13:35:48.113Z,22.30
2022-11-12T13:38:17.528Z,22.19
2022-11-12T13:40:49.929Z,22.20
2022-11-12T13:43:25.893Z,22.32
2022-11-12T13:45:57.199Z,22.09
2022-11-12T13:48:35.933Z,22.08
2022-11-12T13:51:05.715Z,22.04
2022-11-12T13:53:32.728Z,22.27
2022-11-12T13:55:59.580Z,22.19
2022-11-12T13:58:35.126Z,22.25
2022-11-12T14:01:03.033Z,22.11
2022-11-12T14:03:34.725Z,22.08
2022-11-12T14:06:06.230Z,22.00
2022-11-12T14:08:59.969Z,22.06
2022-11-12T14:11:36.114Z,22.00
2022-11-12T14:14:18.670Z,21.79
2022-11-12T14:16:54.967Z,21.68
2022-11-12T14:19:36.889Z,21.18
2022-11-12T14:22:17.932Z,21.25
2022-11-12T14:24:46.114Z,21.20
2022-11-12T14:27:33.715Z,20.76
2022-11-12T14:30:20.933Z,20.37
2022-11-12T14:33:01.477Z,19.95
2022-11-12T14:35:36.788Z,19.97
2022-11-12T14:38:05.194Z,19.99
2022-11-12T14:40:58.806Z,20.11
2022-11-12T14:43:47.739Z,20.01
2022-11-12T14:46:24.705Z,19.81
2022-11-12T14:48:55.152Z,19.47
2022-11-12T14:51:22.556Z,19.24
2022-11-12T14:53:56.526Z,19.06
2022-11-12T14:56:36.499Z,19.19
2022-11-12T14:59:04.254Z,18.98
2022-11-12T15:04:25.825Z,18.61
2022-11-12T15:06:56.620Z,18.67
2022-11-12T15:09:37.586Z,18.80
2022-11-12T15:12:20.864Z,18.77
2022-11-12T15:14:47.452Z,18.74
2022-11-12T15:17:30.510Z,18.74
2022-11-12T15:20:06.058Z,18.66
2022-11-12T15:22:32.978Z,18.36
2022-11-12T15:25:17.108Z,18.47
2022-11-12T15:27:43.747Z,18.21
2022-11-12T15:30:20.988Z,18.22
2022-11-12T15:32:47.452Z,18.07
2022-11-12T15:35:46.264Z,17.98
2022-11-12T15:38:35.902Z,17.82
2022-11-12T15:41:02.600Z,17.48
2022-11-12T15:43:30.569Z,17.58
2022-11-12T15:45:57.423Z,17.57
2022-11-12T15:48:24.259Z,17.40
2022-11-12T15:50:50.842Z,17.09
2022-11-12T15:53:17.351Z,17.27
2022-11-12T15:55:44.451Z,17.16
2022-11-12T15:58:19.505Z,17.13
2022-11-12T16:00:46.431Z,17.14
2022-11-12T16:03:17.242Z,16.90
2022-11-12T16:05:44.292Z,16.98
2022-11-12T16:08:11.142Z,17.02
2022-11-12T16:10:38.957Z,16.83
2022-11-12T16:13:06.216Z,16.82
2022-11-12T16:15:33.433Z,16.76
2022-11-12T16:18:00.431Z,16.73
2022-11-12T16:20:33.227Z,16.64
2022-11-12T16:22:59.908Z,16.41
2022-11-12T16:25:32.374Z,16.41
2022-11-12T16:27:59.422Z,16.07
2022-11-12T16:30:28.645Z,16.35
2022-11-12T16:32:59.161Z,16.30
2022-11-12T16:35:29.777Z,16.23
2022-11-12T16:37:56.269Z,16.13
2022-11-12T16:40:27.245Z,16.04
2022-11-12T16:42:53.806Z,15.94
2022-11-12T16:45:25.320Z,15.94
2022-11-12T16:47:56.188Z,15.92
2022-11-12T16:50:25.258Z,15.91
2022-11-12T16:52:55.691Z,15.76
2022-11-12T16:55:22.587Z,15.74
2022-11-12T16:57:49.053Z,15.49
2022-11-12T17:00:17.629Z,15.35
2022-11-12T17:02:47.235Z,15.40
2022-11-12T17:05:24.861Z,15.12
2022-11-12T17:07:56.148Z,15.17
2022-11-12T17:10:25.536Z,15.14
2022-11-12T17:12:52.400Z,14.87
2022-11-12T17:15:19.149Z,14.99
2022-11-12T17:18:10.654Z,15.10
2022-11-12T17:20:37.323Z,15.09
2022-11-12T17:23:03.844Z,15.14
2022-11-12T17:25:30.326Z,15.13
2022-11-12T17:27:56.848Z,15.06
2022-11-12T17:30:23.296Z,14.89
2022-11-12T17:32:49.812Z,14.91
2022-11-12T17:35:16.784Z,14.81
2022-11-12T17:37:43.300Z,14.95
2022-11-12T17:40:10.199Z,14.88
2022-11-12T17:42:36.797Z,14.54
2022-11-12T17:45:03.420Z,14.66
2022-11-12T17:47:29.836Z,14.58
2022-11-12T17:49:56.295Z,14.73
2022-11-12T17:52:22.746Z,14.82
2022-11-12T17:54:49.211Z,14.74
2022-11-12T17:57:15.663Z,14.79
2022-11-12T17:59:42.216Z,14.85
2022-11-12T18:02:11.723Z,14.65
2022-11-12T18:04:38.394Z,14.87
2022-11-12T18:07:04.865Z,14.97
2022-11-12T18:09:31.681Z,14.87
2022-11-12T18:11:58.851Z,14.90
2022-11-12T18:14:26.006Z,14.90
2022-11-12T18:16:52.534Z,14.75
2022-11-12T18:19:19.012Z,14.84
2022-11-12T18:21:45.556Z,14.61
2022-11-12T18:24:16.081Z,14.77
2022-11-12T18:26:43.075Z,14.76
2022-11-12T18:29:09.601Z,14.50
2022-11-12T18:31:36.103Z,14.79
2022-11-12T18:34:02.541Z,14.82
2022-11-12T18:36:29.142Z,14.68
2022-11-12T18:38:56.210Z,14.80
2022-11-12T18:41:25.812Z,14.82
2022-11-12T18:43:53.299Z,14.68
2022-11-12T18:46:19.844Z,14.83
2022-11-12T18:48:47.451Z,14.70
2022-11-12T18:51:16.984Z,14.74
2022-11-12T18:53:45.558Z,14.79
2022-11-12T18:56:19.864Z,14.78
2022-11-12T18:58:46.815Z,14.79
2022-11-12T19:01:17.810Z,14.82
2022-11-12T19:03:44.383Z,14.51
2022-11-12T19:06:14.785Z,14.84
2022-11-12T19:08:42.311Z,14.91
2022-11-12T19:11:13.259Z,14.90
2022-11-12T19:13:40.233Z,14.97
2022-11-12T19:16:11.567Z,14.93
2022-11-12T19:18:39.212Z,14.93
2022-11-12T19:21:11.267Z,14.66
2022-11-12T19:23:38.592Z,14.63
2022-11-12T19:26:06.729Z,14.57
2022-11-12T19:28:34.527Z,14.65
2022-11-12T19:31:05.754Z,14.61
2022-11-12T19:33:32.728Z,14.46
2022-11-12T19:36:05.152Z,14.42
2022-11-12T19:38:33.011Z,14.37
2022-11-12T19:41:07.072Z,14.62
2022-11-12T19:43:34.157Z,14.66
2022-11-12T19:46:00.944Z,14.68
2022-11-12T19:48:27.947Z,14.38
2022-11-12T19:50:54.969Z,14.51
2022-11-12T19:53:22.449Z,14.52
2022-11-12T19:55:48.903Z,14.77
2022-11-12T19:58:15.396Z,14.70
2022-11-12T20:00:41.888Z,14.31
2022-11-12T20:03:08.335Z,14.52
2022-11-12T20:05:34.849Z,14.37
2022-11-12T20:08:01.463Z,14.54
2022-11-12T20:10:27.906Z,14.60
2022-11-12T20:12:54.730Z,14.53
2022-11-12T20:15:21.281Z,14.57
2022-11-12T20:17:47.709Z,14.62
2022-11-12T20:20:14.185Z,14.45
2022-11-12T20:22:40.945Z,14.49
2022-11-12T20:25:07.869Z,14.49
2022-11-12T20:27:34.435Z,14.36
2022-11-12T20:30:00.909Z,14.22
2022-11-12T20:32:27.486Z,14.44
2022-11-12T20:34:54.109Z,14.39
2022-11-12T20:37:20.557Z,14.23
2022-11-12T20:39:47.041Z,14.38
2022-11-12T20:42:13.649Z,14.16
2022-11-12T20:44:41.146Z,14.39
2022-11-12T20:47:07.642Z,14.38
2022-11-12T20:49:34.124Z,14.35
2022-11-12T20:52:00.617Z,14.25
2022-11-12T20:54:27.252Z,14.25
2022-11-12T20:56:55.278Z,14.26
2022-11-12T20:59:23.205Z,14.12
2022-11-12T21:01:49.677Z,14.22
2022-11-12T21:04:16.163Z,14.23
2022-11-12T21:06:43.781Z,14.14
2022-11-12T21:09:10.255Z,14.15
2022-11-12T21:11:37.203Z,13.89
2022-11-12T21:14:03.639Z,14.01
2022-11-12T21:16:30.116Z,13.98
2022-11-12T21:19:00.160Z,13.99
2022-11-12T21:21:29.439Z,13.63
2022-11-12T21:24:03.418Z,14.11
2022-11-12T21:26:31.309Z,13.86
2022-11-12T21:28:57.805Z,14.17
2022-11-12T21:31:26.556Z,14.05
2022-11-12T21:33:55.254Z,14.24
2022-11-12T21:36:22.459Z,14.18
2022-11-12T21:38:49.254Z,14.18
2022-11-12T21:41:18.145Z,14.23
2022-11-12T21:43:45.556Z,14.13
2022-11-12T21:46:27.177Z,14.07
2022-11-12T21:48:55.476Z,14.04
2022-11-12T21:51:24.691Z,13.91
2022-11-12T21:53:56.349Z,14.11
2022-11-12T21:56:24.095Z,14.05
2022-11-12T21:58:50.861Z,14.04
2022-11-12T22:01:22.785Z,13.88
2022-11-12T22:03:49.964Z,13.75
2022-11-12T22:06:17.149Z,13.79
2022-11-12T22:08:43.953Z,13.82
2022-11-12T22:11:12.613Z,13.85
2022-11-12T22:13:39.886Z,13.64
2022-11-12T22:16:12.813Z,13.91
2022-11-12T22:18:39.737Z,13.72
2022-11-12T22:21:09.303Z,13.90
2022-11-12T22:23:38.623Z,13.88
2022-11-12T22:26:15.484Z,13.78
2022-11-12T22:28:42.319Z,13.60
2022-11-12T22:31:17.473Z,13.79
2022-11-12T22:33:43.940Z,13.78
2022-11-12T22:36:15.624Z,13.78
2022-11-12T22:38:43.921Z,13.74
2022-11-12T22:41:15.362Z,13.70
2022-11-12T22:43:42.161Z,13.69
2022-11-12T22:46:14.134Z,13.71
2022-11-12T22:48:41.244Z,13.44
2022-11-12T22:51:12.784Z,13.68
2022-11-12T22:53:39.259Z,13.58
2022-11-12T22:56:07.943Z,13.60
2022-11-12T22:58:44.793Z,13.53
2022-11-12T23:01:20.329Z,13.40
2022-11-12T23:03:47.231Z,13.16
2022-11-12T23:06:13.888Z,13.39
2022-11-12T23:08:40.523Z,13.39
2022-11-12T23:11:09.825Z,13.03
2022-11-12T23:13:37.012Z,13.05
2022-11-12T23:16:07.838Z,13.03
2022-11-12T23:18:34.405Z,12.87
2022-11-12T23:21:03.322Z,13.12
2022-11-12T23:23:29.817Z,12.83
2022-11-12T23:26:01.931Z,12.79
2022-11-12T23:28:28.824Z,12.59
2022-11-12T23:30:55.708Z,12.71
2022-11-12T23:33:22.174Z,12.61
2022-11-12T23:35:48.633Z,12.74
2022-11-12T23:38:15.085Z,12.67
2022-11-12T23:40:41.840Z,12.75
2022-11-12T23:43:08.346Z,12.82
2022-11-12T23:45:40.416Z,12.78
2022-11-12T23:48:07.056Z,12.40
2022-11-12T23:50:33.586Z,12.63
2022-11-12T23:53:00.021Z,12.71
2022-11-12T23:55:29.115Z,12.54
2022-11-12T23:57:55.900Z,12.34
